Time;durP1;ratioP1;P1;durP2;ratioP2;P2;SDS_P1;SDS_P2;PMS_P1;PMS_P2;Temp;Humidity;BMP_temperature;BMP_pressure;BME280_temperature;BME280_humidity;BME280_pressure;Samples;Min_cycle;Max_cycle;Signal;HPM_P1;HPM_P2
2021/07/10 00:02:10;;;;;;;14.13;11.55;;;;;;;17.45;98.51;99700.28;5114781;28;20226;-73
2021/07/10 00:04:37;;;;;;;14.00;12.50;;;;;;;17.67;97.29;99696.59;5114098;28;20604;-73
2021/07/10 00:07:05;;;;;;;13.82;12.30;;;;;;;17.89;95.67;99700.22;5114503;28;20189;-73
2021/07/10 00:09:31;;;;;;;13.40;12.10;;;;;;;17.68;96.28;99692.88;5114373;28;20205;-73
2021/07/10 00:11:58;;;;;;;13.48;12.07;;;;;;;17.51;98.03;99704.34;5113997;28;20191;-72
2021/07/10 00:14:26;;;;;;;13.77;12.13;;;;;;;17.47;99.09;99700.16;5114737;28;20218;-72
2021/07/10 00:16:53;;;;;;;15.20;13.70;;;;;;;17.25;100.00;99690.22;5114208;28;20188;-73
2021/07/10 00:19:19;;;;;;;14.15;12.85;;;;;;;17.30;100.00;99697.00;5114634;28;20625;-72
2021/07/10 00:21:46;;;;;;;13.88;12.40;;;;;;;17.12;100.00;99704.00;5113769;28;20206;-74
2021/07/10 00:24:12;;;;;;;14.60;13.05;;;;;;;17.17;100.00;99699.03;5114108;28;20294;-72
2021/07/10 00:26:39;;;;;;;13.70;12.40;;;;;;;17.29;100.00;99700.72;5114223;28;20208;-73
2021/07/10 00:29:06;;;;;;;14.77;12.85;;;;;;;17.46;100.00;99691.13;5114121;28;20269;-73
2021/07/10 00:31:34;;;;;;;14.88;12.93;;;;;;;17.39;99.36;99691.75;5114644;28;20489;-72
2021/07/10 00:34:00;;;;;;;15.25;12.93;;;;;;;17.19;100.00;99688.91;5114521;28;20267;-73
2021/07/10 00:36:27;;;;;;;15.40;13.27;;;;;;;16.98;100.00;99693.41;5114051;28;20203;-72
2021/07/10 00:38:56;;;;;;;15.90;14.18;;;;;;;17.05;100.00;99690.06;5114226;28;20627;-73
2021/07/10 00:41:23;;;;;;;16.27;13.45;;;;;;;17.02;100.00;99687.56;5114350;28;20316;-74
2021/07/10 00:43:50;;;;;;;15.10;13.60;;;;;;;17.05;100.00;99694.66;5114068;28;20555;-73
2021/07/10 00:46:18;;;;;;;14.40;12.85;;;;;;;17.18;100.00;99689.00;5114121;28;20215;-73
2021/07/10 00:48:46;;;;;;;13.00;11.75;;;;;;;17.13;100.00;99686.69;5114211;28;20283;-74
2021/07/10 00:51:13;;;;;;;14.95;13.30;;;;;;;16.99;100.00;99676.09;5114007;28;20635;-73
2021/07/10 00:53:39;;;;;;;14.30;12.80;;;;;;;16.84;100.00;99673.66;5114114;28;20602;-73
2021/07/10 00:56:07;;;;;;;14.68;11.48;;;;;;;16.91;100.00;99671.28;5114140;28;20646;-75
2021/07/10 00:58:34;;;;;;;12.90;11.68;;;;;;;16.85;100.00;99667.25;5113416;28;20274;-74
2021/07/10 01:01:02;;;;;;;13.60;12.23;;;;;;;16.76;100.00;99667.13;5114062;28;20300;-73
2021/07/10 01:03:32;;;;;;;13.68;12.48;;;;;;;16.84;100.00;99665.50;5113285;28;20357;-73
2021/07/10 01:06:00;;;;;;;13.43;11.95;;;;;;;16.93;100.00;99671.16;5113443;28;20202;-74
2021/07/10 01:08:27;;;;;;;17.27;13.38;;;;;;;16.84;100.00;99667.34;5113392;28;20192;-73
2021/07/10 01:10:54;;;;;;;14.75;13.18;;;;;;;16.90;100.00;99664.13;5113835;28;20233;-73
2021/07/10 01:13:22;;;;;;;12.45;11.20;;;;;;;17.13;100.00;99664.06;5113864;28;20182;-74
2021/07/10 01:15:49;;;;;;;13.52;12.32;;;;;;;17.23;99.95;99655.00;5113731;28;20241;-73
2021/07/10 01:18:15;;;;;;;13.32;12.13;;;;;;;17.38;98.08;99651.94;5113382;28;20227;-74
2021/07/10 01:20:48;;;;;;;13.38;12.07;;;;;;;17.43;96.79;99656.00;5113234;28;20212;-73
2021/07/10 01:23:14;;;;;;;14.63;13.13;;;;;;;17.48;96.06;99661.06;5113316;28;20598;-74
2021/07/10 01:25:41;;;;;;;13.60;12.32;;;;;;;17.33;97.09;99649.63;5113264;28;20601;-74
2021/07/10 01:28:09;;;;;;;14.18;12.80;;;;;;;17.09;98.36;99649.84;5112802;28;20203;-73
2021/07/10 01:30:37;;;;;;;14.15;12.27;;;;;;;17.11;98.52;99653.28;5112986;28;20187;-74
2021/07/10 01:33:05;;;;;;;15.60;13.63;;;;;;;16.88;99.15;99658.81;5113256;28;20199;-73
2021/07/10 01:35:32;;;;;;;14.18;12.85;;;;;;;16.90;100.00;99646.97;5112900;28;20188;-74
2021/07/10 01:38:00;;;;;;;14.15;12.80;;;;;;;16.75;100.00;99641.75;5112882;28;20204;-74
2021/07/10 01:40:27;;;;;;;14.70;12.52;;;;;;;16.75;100.00;99630.03;5113085;28;20189;-74
2021/07/10 01:42:55;;;;;;;14.90;13.40;;;;;;;16.81;100.00;99640.44;5113078;28;20216;-74
2021/07/10 01:45:23;;;;;;;16.35;14.60;;;;;;;16.87;99.72;99639.94;5113122;28;20219;-75
2021/07/10 01:47:50;;;;;;;16.73;14.98;;;;;;;17.04;98.47;99631.19;5112996;28;20643;-73
2021/07/10 01:50:18;;;;;;;13.77;12.32;;;;;;;17.12;96.15;99621.50;5112432;28;20211;-74
2021/07/10 01:52:46;;;;;;;15.98;14.32;;;;;;;17.15;96.71;99624.00;5112788;28;20176;-74
2021/07/10 01:55:15;;;;;;;14.85;13.35;;;;;;;17.22;95.32;99620.59;5112612;28;20185;-74
2021/07/10 01:57:44;;;;;;;16.77;14.98;;;;;;;17.32;94.47;99627.97;5112757;28;20201;-74
2021/07/10 02:00:12;;;;;;;13.10;11.90;;;;;;;17.29;93.94;99619.06;5111730;28;20212;-74
2021/07/10 02:02:40;;;;;;;14.75;13.30;;;;;;;17.24;94.53;99615.03;5112379;28;20326;-75
2021/07/10 02:05:08;;;;;;;17.55;11.55;;;;;;;17.32;93.36;99614.38;5112688;28;20565;-74
2021/07/10 02:07:35;;;;;;;13.05;11.50;;;;;;;17.26;92.96;99607.63;5112611;28;20217;-74
2021/07/10 02:10:01;;;;;;;12.43;11.13;;;;;;;16.96;94.52;99609.22;5112600;28;20617;-73
2021/07/10 02:12:29;;;;;;;13.65;11.60;;;;;;;16.71;96.05;99602.25;5112513;28;20641;-74
2021/07/10 02:14:56;;;;;;;20.90;18.90;;;;;;;16.61;96.50;99612.16;5112567;28;20506;-73
2021/07/10 02:17:22;;;;;;;11.73;10.52;;;;;;;16.73;96.64;99605.66;5112671;28;20183;-73
2021/07/10 02:19:49;;;;;;;12.68;11.57;;;;;;;16.64;97.67;99607.31;5112519;28;20196;-73
2021/07/10 02:22:17;;;;;;;12.52;11.25;;;;;;;16.64;97.55;99609.16;5112596;28;20623;-74
2021/07/10 02:24:43;;;;;;;14.88;13.40;;;;;;;16.56;96.71;99614.38;5112010;28;20547;-73
2021/07/10 02:27:10;;;;;;;16.38;14.68;;;;;;;16.58;97.23;99604.25;5112509;28;20548;-73
2021/07/10 02:29:38;;;;;;;15.60;12.38;;;;;;;16.51;97.32;99597.56;5111736;28;20209;-73
2021/07/10 02:32:06;;;;;;;14.73;13.23;;;;;;;16.64;97.27;99598.28;5112561;28;20657;-73
2021/07/10 02:34:32;;;;;;;15.13;13.57;;;;;;;16.68;96.95;99586.16;5112493;28;20199;-73
2021/07/10 02:36:59;;;;;;;12.75;11.27;;;;;;;16.51;96.68;99592.13;5112569;28;20188;-73
2021/07/10 02:39:25;;;;;;;13.73;12.30;;;;;;;16.30;98.40;99590.19;5112135;28;20222;-74
2021/07/10 02:41:52;;;;;;;14.15;12.85;;;;;;;16.37;98.13;99593.28;5112451;28;20202;-73
2021/07/10 02:44:19;;;;;;;14.38;12.05;;;;;;;16.39;97.89;99588.59;5111949;28;20208;-73
2021/07/10 02:46:47;;;;;;;13.27;11.98;;;;;;;16.15;99.07;99577.91;5112104;28;20607;-74
2021/07/10 02:49:13;;;;;;;13.18;11.88;;;;;;;16.24;98.77;99582.59;5111987;28;20257;-73
2021/07/10 02:51:40;;;;;;;13.73;12.40;;;;;;;16.05;99.93;99588.63;5111920;28;20194;-74
2021/07/10 02:54:06;;;;;;;14.05;12.75;;;;;;;16.12;99.86;99579.00;5112424;28;20527;-73
2021/07/10 02:56:33;;;;;;;16.85;12.25;;;;;;;15.93;100.00;99576.91;5112054;28;20223;-73
2021/07/10 02:59:00;;;;;;;12.50;11.18;;;;;;;16.04;100.00;99579.63;5112169;28;20179;-73
2021/07/10 03:01:26;;;;;;;14.00;12.70;;;;;;;15.91;100.00;99584.31;5111798;28;20234;-73
2021/07/10 03:03:54;;;;;;;13.85;12.45;;;;;;;15.85;100.00;99573.94;5111525;28;20229;-72
2021/07/10 03:06:21;;;;;;;17.85;13.23;;;;;;;15.62;100.00;99571.22;5111803;28;20295;-75
2021/07/10 03:08:47;;;;;;;17.33;13.93;;;;;;;15.60;100.00;99573.19;5111721;28;20598;-74
2021/07/10 03:11:14;;;;;;;12.77;11.68;;;;;;;15.70;100.00;99564.31;5112169;28;20643;-75
2021/07/10 03:13:41;;;;;;;14.38;12.98;;;;;;;15.82;100.00;99566.06;5112145;28;20222;-72
2021/07/10 03:16:08;;;;;;;15.10;13.27;;;;;;;15.94;100.00;99581.38;5112071;28;20611;-73
2021/07/10 03:18:35;;;;;;;14.48;13.00;;;;;;;15.87;100.00;99577.41;5111720;28;20183;-73
2021/07/10 03:21:03;;;;;;;14.00;12.70;;;;;;;15.81;100.00;99572.50;5112052;28;20199;-75
2021/07/10 03:23:30;;;;;;;14.77;12.52;;;;;;;15.55;100.00;99567.25;5111590;28;20207;-73
2021/07/10 03:25:57;;;;;;;14.77;12.10;;;;;;;15.45;100.00;99570.81;5111980;28;20278;-73
2021/07/10 03:28:23;;;;;;;13.43;11.82;;;;;;;15.52;100.00;99558.50;5111596;28;20206;-73
2021/07/10 03:30:52;;;;;;;18.40;14.20;;;;;;;15.40;100.00;99565.75;5111359;28;20270;-73
2021/07/10 03:33:19;;;;;;;14.73;12.88;;;;;;;15.48;100.00;99560.56;5112003;28;20539;-74
2021/07/10 03:35:46;;;;;;;14.40;13.00;;;;;;;15.55;100.00;99569.94;5111469;28;20199;-72
2021/07/10 03:38:14;;;;;;;13.93;12.57;;;;;;;15.60;100.00;99567.75;5111732;28;20626;-73
2021/07/10 03:40:41;;;;;;;15.07;13.57;;;;;;;15.41;100.00;99571.03;5113123;28;20180;-73
2021/07/10 03:43:07;;;;;;;14.35;12.55;;;;;;;15.29;100.00;99572.03;5115049;28;20199;-73
2021/07/10 03:45:34;;;;;;;14.00;12.30;;;;;;;15.27;100.00;99568.56;5115314;28;20519;-73
2021/07/10 03:48:01;;;;;;;14.95;13.43;;;;;;;15.34;100.00;99563.53;5114893;28;20211;-73
2021/07/10 03:50:28;;;;;;;13.80;12.45;;;;;;;15.47;100.00;99569.72;5115369;28;20619;-73
2021/07/10 03:52:54;;;;;;;18.17;12.90;;;;;;;15.46;100.00;99562.53;5114784;28;20201;-72
2021/07/10 03:55:22;;;;;;;13.98;12.52;;;;;;;15.48;100.00;99559.72;5115251;28;20555;-76
2021/07/10 03:57:49;;;;;;;13.98;12.57;;;;;;;15.43;100.00;99551.94;5115170;28;20183;-73
2021/07/10 04:00:18;;;;;;;17.40;13.82;;;;;;;15.39;100.00;99559.44;5114820;28;20282;-73
2021/07/10 04:02:45;;;;;;;14.48;13.00;;;;;;;15.40;100.00;99552.19;5114803;28;20237;-73
2021/07/10 04:05:13;;;;;;;14.98;13.48;;;;;;;15.46;100.00;99553.53;5115304;28;20204;-74
2021/07/10 04:07:39;;;;;;;15.15;12.45;;;;;;;15.56;100.00;99552.69;5114955;28;20314;-74
2021/07/10 04:10:08;;;;;;;14.30;13.00;;;;;;;15.76;100.00;99553.84;5114785;28;20275;-74
2021/07/10 04:12:36;;;;;;;15.10;13.57;;;;;;;15.78;100.00;99553.72;5115350;28;20704;-73
2021/07/10 04:15:03;;;;;;;14.45;12.93;;;;;;;15.60;99.66;99546.03;5114845;28;20552;-73
2021/07/10 04:17:31;;;;;;;17.08;12.77;;;;;;;15.48;100.00;99549.72;5114391;28;20198;-73
2021/07/10 04:19:58;;;;;;;14.60;13.20;;;;;;;15.47;100.00;99548.00;5114506;28;20203;-73
2021/07/10 04:22:25;;;;;;;14.77;13.30;;;;;;;15.50;100.00;99552.31;5114734;28;20200;-74
2021/07/10 04:24:52;;;;;;;16.08;11.93;;;;;;;15.61;100.00;99555.03;5114538;28;20729;-74
2021/07/10 04:27:19;;;;;;;14.45;12.10;;;;;;;15.80;99.70;99554.44;5114323;28;20199;-74
2021/07/10 04:29:48;;;;;;;16.85;12.23;;;;;;;15.96;97.79;99546.78;5114544;28;20195;-74
2021/07/10 04:32:15;;;;;;;17.05;12.30;;;;;;;16.02;96.55;99546.28;5114428;28;20283;-74
2021/07/10 04:34:42;;;;;;;15.15;13.68;;;;;;;15.89;97.77;99552.84;5114055;28;20218;-73
2021/07/10 04:37:08;;;;;;;16.60;14.55;;;;;;;15.75;98.20;99545.81;5113971;28;20537;-72
2021/07/10 04:39:35;;;;;;;15.25;13.70;;;;;;;15.58;100.00;99544.41;5114005;28;20207;-73
2021/07/10 04:42:02;;;;;;;17.60;15.80;;;;;;;15.45;100.00;99549.97;5114495;28;20294;-74
2021/07/10 04:44:28;;;;;;;19.02;16.73;;;;;;;15.43;100.00;99554.66;5114229;28;20214;-74
2021/07/10 04:46:56;;;;;;;17.83;15.68;;;;;;;15.53;100.00;99560.22;5114403;28;20253;-74
2021/07/10 04:49:23;;;;;;;15.75;14.20;;;;;;;15.50;100.00;99558.59;5113985;28;20203;-72
2021/07/10 04:51:50;;;;;;;15.00;13.35;;;;;;;15.63;100.00;99564.78;5113342;28;20275;-72
2021/07/10 04:54:16;;;;;;;14.43;12.93;;;;;;;15.69;100.00;99557.13;5113818;28;20192;-73
2021/07/10 04:56:43;;;;;;;15.32;13.75;;;;;;;15.76;99.98;99552.97;5114020;28;20560;-73
2021/07/10 04:59:10;;;;;;;13.63;12.23;;;;;;;16.02;98.29;99550.88;5113678;28;20186;-74
2021/07/10 05:01:36;;;;;;;14.40;12.90;;;;;;;16.20;96.67;99562.09;5114098;28;20629;-74
2021/07/10 05:04:04;;;;;;;16.73;14.07;;;;;;;16.19;96.43;99561.22;5112993;28;20565;-73
2021/07/10 05:06:31;;;;;;;15.45;13.85;;;;;;;16.15;96.09;99565.19;5113332;28;20184;-72
2021/07/10 05:08:58;;;;;;;14.63;13.15;;;;;;;16.17;97.22;99565.06;5113166;28;20236;-74
2021/07/10 05:11:24;;;;;;;15.45;13.95;;;;;;;16.43;95.85;99555.59;5113334;28;20190;-75
2021/07/10 05:13:51;;;;;;;17.35;13.95;;;;;;;16.71;94.46;99560.56;5113356;28;20202;-72
2021/07/10 05:16:17;;;;;;;15.07;13.57;;;;;;;16.94;92.32;99558.69;5113262;28;20187;-73
2021/07/10 05:18:44;;;;;;;15.00;13.60;;;;;;;16.78;92.72;99568.09;5113300;28;20298;-73
2021/07/10 05:21:12;;;;;;;14.55;13.05;;;;;;;16.54;95.26;99567.44;5113411;28;20190;-73
2021/07/10 05:23:40;;;;;;;15.27;13.68;;;;;;;16.53;94.95;99565.69;5113368;28;20238;-74
2021/07/10 05:26:09;;;;;;;16.33;14.70;;;;;;;16.52;95.30;99561.28;5113410;28;20223;-75
2021/07/10 05:28:36;;;;;;;16.02;14.40;;;;;;;16.81;92.94;99559.72;5113580;28;20603;-73
2021/07/10 05:31:02;;;;;;;14.82;13.43;;;;;;;16.70;93.42;99564.31;5112918;28;20200;-73
2021/07/10 05:33:29;;;;;;;15.73;14.23;;;;;;;16.89;93.16;99559.03;5112875;28;20578;-73
2021/07/10 05:35:56;;;;;;;14.63;13.13;;;;;;;17.15;91.02;99554.09;5112978;28;20192;-73
2021/07/10 05:38:25;;;;;;;15.85;14.25;;;;;;;17.11;90.20;99549.06;5113050;28;20200;-74
2021/07/10 05:40:52;;;;;;;15.00;13.50;;;;;;;17.28;89.24;99549.34;5112982;28;20212;-74
2021/07/10 05:43:23;;;;;;;15.20;13.80;;;;;;;17.35;88.83;99549.66;5113383;28;20238;-74
2021/07/10 05:45:49;;;;;;;15.25;13.75;;;;;;;17.43;88.66;99555.28;5113128;28;20227;-74
2021/07/10 05:48:16;;;;;;;17.38;13.70;;;;;;;17.70;86.48;99553.84;5113084;28;20184;-73
2021/07/10 05:50:43;;;;;;;14.73;13.15;;;;;;;17.72;85.72;99558.16;5112833;28;20180;-75
2021/07/10 05:53:10;;;;;;;14.02;12.65;;;;;;;17.94;83.95;99556.31;5112505;28;20203;-73
2021/07/10 05:55:38;;;;;;;18.48;15.98;;;;;;;17.82;85.20;99562.81;5112530;28;20181;-74
2021/07/10 05:58:04;;;;;;;12.93;11.73;;;;;;;18.11;83.23;99554.78;5112287;28;20217;-74
2021/07/10 06:00:32;;;;;;;13.45;12.15;;;;;;;18.10;83.23;99563.97;5112409;28;20225;-73
2021/07/10 06:02:59;;;;;;;14.48;13.15;;;;;;;17.95;84.93;99568.06;5111696;28;20225;-73
2021/07/10 06:05:26;;;;;;;16.05;12.30;;;;;;;18.23;83.84;99558.28;5112935;28;20290;-74
2021/07/10 06:07:52;;;;;;;14.07;12.30;;;;;;;18.32;83.50;99565.63;5112410;28;20196;-74
2021/07/10 06:10:19;;;;;;;13.50;11.70;;;;;;;18.37;82.52;99567.91;5112633;28;20238;-74
2021/07/10 06:12:48;;;;;;;13.63;12.35;;;;;;;18.31;82.95;99555.69;5112166;28;20183;-74
2021/07/10 06:15:15;;;;;;;14.30;13.00;;;;;;;18.47;82.71;99569.63;5112095;28;20194;-73
2021/07/10 06:17:43;;;;;;;11.85;10.75;;;;;;;18.64;82.07;99559.06;5112551;28;20181;-73
2021/07/10 06:20:12;;;;;;;13.25;12.05;;;;;;;18.91;80.31;99555.66;5112244;28;20203;-74
2021/07/10 06:22:40;;;;;;;13.40;12.00;;;;;;;19.05;78.79;99555.22;5112156;28;20197;-74
2021/07/10 06:25:09;;;;;;;11.68;10.73;;;;;;;19.26;77.46;99549.59;5112009;28;20200;-74
2021/07/10 06:27:36;;;;;;;11.65;10.55;;;;;;;19.34;77.05;99557.91;5112497;28;20205;-74
2021/07/10 06:30:05;;;;;;;12.13;10.77;;;;;;;19.61;75.73;99555.44;5112005;28;20182;-73
2021/07/10 06:32:31;;;;;;;12.45;11.15;;;;;;;19.85;74.60;99560.41;5112332;28;20187;-73
2021/07/10 06:34:58;;;;;;;10.98;9.95;;;;;;;19.98;74.12;99555.47;5112239;28;20204;-73
2021/07/10 06:37:24;;;;;;;12.23;10.93;;;;;;;19.90;74.33;99561.69;5112013;28;20186;-74
2021/07/10 06:39:51;;;;;;;10.90;9.87;;;;;;;19.79;74.19;99548.22;5112448;28;20206;-73
2021/07/10 06:42:19;;;;;;;9.75;8.85;;;;;;;20.14;73.02;99547.47;5111789;28;20498;-74
2021/07/10 06:44:47;;;;;;;10.52;9.52;;;;;;;20.19;72.28;99549.72;5111628;28;20219;-74
2021/07/10 06:47:14;;;;;;;10.27;9.13;;;;;;;20.28;72.47;99535.16;5111678;28;20281;-73
2021/07/10 06:49:41;;;;;;;11.00;10.00;;;;;;;20.38;71.88;99541.44;5111980;28;20906;-73
2021/07/10 06:52:08;;;;;;;13.03;9.70;;;;;;;20.79;69.81;99530.09;5112321;28;20470;-73
2021/07/10 06:54:35;;;;;;;10.10;9.10;;;;;;;20.96;69.81;99537.44;5111393;28;20437;-74
2021/07/10 06:57:01;;;;;;;11.63;10.50;;;;;;;21.06;69.75;99541.97;5111886;28;20779;-74
2021/07/10 06:59:28;;;;;;;10.23;9.10;;;;;;;21.45;67.61;99534.25;5112033;28;20508;-73
2021/07/10 07:01:54;;;;;;;9.70;8.80;;;;;;;21.45;67.68;99535.09;5112045;28;20797;-75
2021/07/10 07:04:22;;;;;;;14.20;10.17;;;;;;;21.57;66.89;99527.50;5111613;28;20488;-74
2021/07/10 07:06:49;;;;;;;26.30;10.67;;;;;;;21.62;67.36;99529.75;5111145;28;20436;-73
2021/07/10 07:09:16;;;;;;;11.17;8.80;;;;;;;21.63;67.12;99532.31;5111500;28;20802;-74
2021/07/10 07:11:43;;;;;;;9.60;8.80;;;;;;;21.77;66.83;99530.00;5112033;28;20421;-74
2021/07/10 07:14:10;;;;;;;9.97;7.87;;;;;;;21.60;67.06;99531.78;5112513;28;20476;-74
2021/07/10 07:16:36;;;;;;;9.43;8.50;;;;;;;21.53;67.85;99530.72;5115904;28;20448;-74
2021/07/10 07:19:03;;;;;;;19.20;15.17;;;;;;;21.65;67.52;99524.78;5115551;28;20907;-74
2021/07/10 07:21:31;;;;;;;12.50;11.30;;;;;;;21.94;66.36;99523.59;5116013;28;20902;-74
2021/07/10 07:23:58;;;;;;;10.77;9.70;;;;;;;21.83;66.70;99512.91;5115040;28;20524;-74
2021/07/10 07:26:25;;;;;;;8.90;8.20;;;;;;;21.90;66.29;99515.84;5115587;28;20810;-73
2021/07/10 07:28:51;;;;;;;11.03;8.10;;;;;;;21.95;66.17;99516.22;5115365;28;20415;-73
2021/07/10 07:31:18;;;;;;;9.47;8.57;;;;;;;22.15;65.84;99525.91;5114949;28;20443;-75
2021/07/10 07:33:45;;;;;;;9.50;8.23;;;;;;;22.18;66.37;99513.72;5115286;28;20425;-73
2021/07/10 07:36:12;;;;;;;9.87;8.63;;;;;;;22.36;66.21;99516.38;5115384;28;20460;-74
2021/07/10 07:38:40;;;;;;;11.50;8.80;;;;;;;22.80;64.49;99507.91;5115244;28;20899;-73
2021/07/10 07:41:07;;;;;;;9.03;8.23;;;;;;;23.22;62.57;99507.78;5115208;28;20431;-74
2021/07/10 07:43:34;;;;;;;8.97;8.07;;;;;;;22.72;64.15;99510.66;5115356;28;20425;-73
2021/07/10 07:46:01;;;;;;;9.90;9.00;;;;;;;23.04;63.48;99501.59;5114638;28;20472;-75
2021/07/10 07:48:28;;;;;;;13.67;11.97;;;;;;;23.14;62.52;99499.53;5115384;28;20422;-73
2021/07/10 07:50:54;;;;;;;46.77;36.33;;;;;;;23.32;62.03;99502.09;5115101;28;20425;-74
2021/07/10 07:53:21;;;;;;;9.83;8.93;;;;;;;23.46;61.42;99495.03;5114810;28;20445;-73
2021/07/10 07:55:49;;;;;;;7.80;7.00;;;;;;;23.53;61.19;99499.66;5115151;27;20868;-73
2021/07/10 07:58:16;;;;;;;7.27;6.67;;;;;;;23.30;61.89;99485.78;5115124;27;20437;-75
2021/07/10 08:00:43;;;;;;;7.93;7.20;;;;;;;23.31;62.29;99486.63;5114633;28;20451;-73
2021/07/10 08:03:10;;;;;;;7.50;6.90;;;;;;;23.52;61.29;99480.59;5114601;28;20508;-74
2021/07/10 08:05:36;;;;;;;7.50;6.80;;;;;;;23.81;60.28;99485.53;5114506;28;20563;-74
2021/07/10 08:08:04;;;;;;;6.80;6.30;;;;;;;24.14;59.29;99485.38;5114956;28;20883;-72
2021/07/10 08:10:30;;;;;;;8.37;6.97;;;;;;;24.25;58.59;99486.88;5113967;28;20427;-72
2021/07/10 08:12:59;;;;;;;9.70;6.70;;;;;;;24.27;58.20;99485.66;5114458;28;20440;-72
2021/07/10 08:15:25;;;;;;;6.53;5.93;;;;;;;24.20;57.53;99487.41;5114681;28;20786;-73
2021/07/10 08:17:53;;;;;;;8.33;6.40;;;;;;;24.44;56.75;99491.06;5114315;28;20519;-73
2021/07/10 08:20:21;;;;;;;8.60;7.93;;;;;;;24.68;55.79;99485.44;5114347;28;20440;-72
2021/07/10 08:22:48;;;;;;;8.93;6.40;;;;;;;24.91;54.39;99487.31;5114767;28;20755;-73
2021/07/10 08:25:14;;;;;;;6.80;6.00;;;;;;;24.85;54.44;99483.41;5114156;28;20465;-73
2021/07/10 08:27:42;;;;;;;7.00;5.47;;;;;;;24.75;54.05;99480.03;5113270;28;20883;-73
2021/07/10 08:30:13;;;;;;;6.30;5.80;;;;;;;24.66;54.59;99482.00;5114563;28;20932;-73
2021/07/10 08:32:40;;;;;;;6.83;6.20;;;;;;;24.74;53.86;99486.59;5114184;28;20430;-73
2021/07/10 08:35:08;;;;;;;9.23;6.13;;;;;;;24.39;55.28;99474.25;5113937;28;20958;-73
2021/07/10 08:37:34;;;;;;;6.43;5.83;;;;;;;24.41;55.66;99474.91;5114031;28;20883;-72
2021/07/10 08:40:01;;;;;;;7.97;5.77;;;;;;;24.20;56.25;99476.41;5113928;28;20418;-73
2021/07/10 08:42:28;;;;;;;6.20;5.30;;;;;;;24.40;54.71;99467.69;5114107;28;20519;-74
2021/07/10 08:44:54;;;;;;;6.23;4.87;;;;;;;24.60;53.56;99474.47;5113589;28;20464;-73
2021/07/10 08:47:24;;;;;;;5.67;5.10;;;;;;;25.01;52.82;99465.03;5113928;28;20528;-74
2021/07/10 08:49:51;;;;;;;6.20;5.60;;;;;;;25.09;52.02;99462.22;5113678;28;20445;-73
2021/07/10 08:52:17;;;;;;;7.90;7.20;;;;;;;24.86;51.63;99459.50;5113890;28;20905;-74
2021/07/10 08:54:44;;;;;;;8.43;5.23;;;;;;;25.11;51.57;99460.13;5113912;28;20437;-73
2021/07/10 08:57:13;;;;;;;5.40;4.97;;;;;;;25.24;51.94;99454.00;5113926;28;20899;-74
2021/07/10 08:59:40;;;;;;;5.90;5.40;;;;;;;25.21;51.59;99451.63;5114001;28;20421;-75
2021/07/10 09:02:09;;;;;;;6.40;5.90;;;;;;;25.38;51.58;99451.25;5113567;28;20433;-74
2021/07/10 09:04:37;;;;;;;5.50;4.87;;;;;;;25.13;51.14;99452.53;5113424;28;20820;-74
2021/07/10 09:07:05;;;;;;;5.50;5.00;;;;;;;24.82;52.11;99445.22;5113551;28;20943;-73
2021/07/10 09:09:45;;;;;;;6.20;5.40;;;;;;;24.74;52.65;99456.31;5113122;28;20448;-73
2021/07/10 09:12:13;;;;;;;5.23;4.70;;;;;;;24.71;52.78;99448.41;5113443;28;20786;-73
2021/07/10 09:14:40;;;;;;;4.37;4.00;;;;;;;24.61;51.46;99450.56;5113419;28;20794;-72
2021/07/10 09:17:18;;;;;;;5.70;5.10;;;;;;;25.01;50.87;99443.00;5113436;28;20426;-72
2021/07/10 09:19:47;;;;;;;5.03;4.53;;;;;;;25.34;50.41;99443.56;5112825;28;20527;-73
2021/07/10 09:22:25;;;;;;;5.70;4.87;;;;;;;25.12;49.73;99443.41;5113194;28;20504;-74
2021/07/10 09:24:54;;;;;;;5.37;4.87;;;;;;;25.50;48.60;99437.88;5112806;28;20448;-73
2021/07/10 09:27:21;;;;;;;5.33;4.77;;;;;;;25.61;48.47;99433.78;5113491;28;20607;-74
2021/07/10 09:29:49;;;;;;;5.37;4.03;;;;;;;25.51;48.06;99436.84;5112440;28;20433;-74
2021/07/10 09:32:19;;;;;;;4.47;4.13;;;;;;;25.59;47.74;99435.88;5118429;27;20777;-74
2021/07/10 09:34:50;;;;;;;6.30;4.80;;;;;;;26.13;47.26;99437.47;5133755;27;20784;-73
2021/07/10 09:37:18;;;;;;;6.70;4.60;;;;;;;26.30;46.57;99436.19;5114254;27;20929;-74
2021/07/10 09:39:54;;;;;;;4.30;3.90;;;;;;;26.33;45.82;99438.56;5111850;28;20441;-74
2021/07/10 09:42:25;;;;;;;4.00;3.70;;;;;;;26.42;45.10;99422.72;5112689;28;20421;-72
2021/07/10 09:44:53;;;;;;;4.43;4.10;;;;;;;26.61;44.89;99418.47;5113666;27;20922;-72
2021/07/10 09:47:26;;;;;;;4.73;4.23;;;;;;;26.44;44.92;99428.06;5113085;28;20433;-74
2021/07/10 09:49:55;;;;;;;4.77;4.27;;;;;;;26.69;43.84;99415.59;5111903;28;20516;-73
2021/07/10 09:52:23;;;;;;;4.00;3.70;;;;;;;26.60;43.94;99419.53;5112401;28;20431;-73
2021/07/10 09:54:52;;;;;;;5.73;4.07;;;;;;;26.77;40.91;99417.34;5112719;28;20505;-72
2021/07/10 09:57:20;;;;;;;3.70;3.40;;;;;;;26.87;41.25;99406.84;5112850;28;20421;-73
2021/07/10 09:59:50;;;;;;;4.10;3.80;;;;;;;26.05;44.05;99405.34;5112661;28;20766;-72
2021/07/10 10:02:24;;;;;;;5.07;4.30;;;;;;;25.73;43.93;99407.47;5112630;28;20456;-72
2021/07/10 10:04:51;;;;;;;4.23;3.83;;;;;;;25.87;44.80;99400.25;5112110;28;20500;-73
2021/07/10 10:07:22;;;;;;;4.10;3.80;;;;;;;26.03;44.37;99407.44;5111787;28;20465;-72
2021/07/10 10:09:55;;;;;;;5.57;4.87;;;;;;;26.79;43.05;99398.69;5114973;27;20501;-73
2021/07/10 10:12:22;;;;;;;4.30;3.90;;;;;;;27.31;41.98;99402.09;5112795;28;20420;-74
2021/07/10 10:14:50;;;;;;;3.83;3.20;;;;;;;27.67;40.91;99390.81;5112112;28;21296;-71
2021/07/10 10:17:20;;;;;;;4.53;4.13;;;;;;;27.24;41.58;99390.97;5112497;28;20445;-72
2021/07/10 10:19:47;;;;;;;5.30;4.20;;;;;;;26.95;43.14;99394.78;5112031;28;20515;-73
2021/07/10 10:22:16;;;;;;;3.70;3.40;;;;;;;27.48;40.90;99384.13;5111872;28;20437;-72
2021/07/10 10:24:46;;;;;;;3.30;2.90;;;;;;;27.82;39.44;99387.91;5111991;28;20862;-72
2021/07/10 10:27:13;;;;;;;5.43;3.40;;;;;;;27.81;38.33;99381.53;5111417;28;20465;-73
2021/07/10 10:29:40;;;;;;;3.70;3.40;;;;;;;28.23;38.19;99371.25;5111558;28;20439;-73
2021/07/10 10:32:09;;;;;;;3.63;3.27;;;;;;;28.57;37.46;99369.44;5111776;28;20452;-73
2021/07/10 10:34:37;;;;;;;3.60;3.30;;;;;;;28.27;36.94;99363.41;5112214;28;20425;-74
2021/07/10 10:37:04;;;;;;;4.33;2.77;;;;;;;27.27;38.82;99367.59;5112094;28;20432;-73
2021/07/10 10:39:34;;;;;;;3.10;2.80;;;;;;;27.35;38.04;99362.78;5112208;28;20928;-73
2021/07/10 10:42:08;;;;;;;6.10;5.30;;;;;;;27.98;37.45;99359.91;5111914;28;20441;-73
2021/07/10 10:44:38;;;;;;;4.53;2.80;;;;;;;28.72;36.66;99357.28;5112088;28;20548;-73
2021/07/10 10:47:05;;;;;;;3.10;2.60;;;;;;;28.76;35.81;99358.56;5111835;28;20884;-73
2021/07/10 10:49:48;;;;;;;2.83;2.63;;;;;;;28.12;37.13;99348.88;5112836;28;20448;-73
2021/07/10 10:52:29;;;;;;;4.50;2.63;;;;;;;28.67;36.27;99355.16;5113643;28;20444;-74
2021/07/10 10:54:57;;;;;;;3.83;3.43;;;;;;;28.95;35.42;99357.72;5116047;28;20472;-73
2021/07/10 10:57:34;;;;;;;3.53;2.63;;;;;;;28.94;35.86;99360.69;5115556;28;20431;-73
2021/07/10 11:00:05;;;;;;;4.10;3.70;;;;;;;28.76;36.18;99359.41;5115640;28;20876;-73
2021/07/10 11:03:09;;;;;;;3.50;3.20;;;;;;;28.84;35.80;99352.81;5116080;28;20440;-74
2021/07/10 11:05:53;;;;;;;3.10;2.87;;;;;;;28.96;36.42;99344.69;5115532;28;20424;-73
2021/07/10 11:08:50;;;;;;;3.23;3.00;;;;;;;28.42;37.10;99338.28;5115585;28;20991;-73
2021/07/10 11:11:41;;;;;;;3.03;2.83;;;;;;;28.64;36.58;99328.72;5116056;28;20891;-73
2021/07/10 11:14:17;;;;;;;3.03;2.73;;;;;;;28.40;37.30;99332.97;5115679;28;20767;-73
2021/07/10 11:17:04;;;;;;;8.43;3.07;;;;;;;27.85;37.90;99334.97;5115728;28;20448;-72
2021/07/10 11:19:57;;;;;;;3.70;3.40;;;;;;;27.94;36.22;99330.09;5115502;28;20435;-73
2021/07/10 11:22:53;;;;;;;3.20;2.90;;;;;;;27.92;37.50;99326.69;5067106;28;20444;-73
2021/07/10 11:26:02;;;;;;;3.10;2.90;;;;;;;27.92;37.02;99330.28;5115154;28;20432;-72
2021/07/10 11:28:45;;;;;;;2.87;2.67;;;;;;;27.39;37.94;99332.81;5115199;28;20428;-73